Terminal Aerodrome Forecast
Issued by NWS

Home | Current Version | Previous Version | Text Only | Print | Product List | Glossary On
Versions: 1 2 3 4 5 6 7 8 9 10 11 12 13 14 15 16 17 18 19 20 21 22 23 24
202
FTUS45 KREV 141720
TAFCXP
TAF
KCXP 141720Z 1418/1518 VRB03KT P6SM SCT250
     FM142000 36008G15KT P6SM BKN045 BKN200
     FM150200 VRB04KT P6SM SCT040=

USA.gov is the U.S. government's official web portal to all federal, state and local government web resources and services.